Página principal
METAR-TAF:

METAR-TAF

Aeroportos :

Aeroporto Internacional de Bagdad

Bagdá, Iraque

latitude: 33-15-45N, longitude: 44-14-04E, altura: 35 m

Observação actual do tempo

O boletim foi feito há 20 minutos, às 07:00 UTC
Vento 10 kt de oes-noroeste
Temperatura 14°C
Humidade 88%
Pressão 1012 hPa
Visibilidade: 2000 m
Nuvens fragmentadasa uma altura de 3000 ft
neblina

METAR: ORBI 260700Z 29010KT 2000 BR BKN030 14/12 Q1012 NOSIG

Hora: 10:20 (07:20 UTC)

Previsão

O boletim foi feito há 3 horas e 20 minutos, às 04:00 UTC
Previsão válida de 26 às 06 UTC a 27 às 06 UTC
Vento 10 kt de oes-noroeste
Visibilidade: 8000 m

TAF: ORBI 260400Z 2606/2706 30010KT 8000 NSC

Observações e previsões do tempo de mais de 4000 aeroportos (mensagens METAR e TAF).

As estações disponíveis são os pontos amarelos e vermelhos sobre o mapa.

Mova o rato sobre o mapa para ver o nome da estação.

Depois clique no ponto para visualizar as observações e previsões meteorológicas.

Para alterar o mapa : clique nos botões verdes com uma cruz preta para aumentar o zoom; no botão verde com uma pitada de zoom; ou nas setas verdes para mapas adjacentes.


METAR-TAF: